sensor_id;sensor_type;location;lat;lon;timestamp;temperature;humidity
8593;DHT22;4334;49.982;8.398;2024-02-23T00:01:23;8.80;99.90
8593;DHT22;4334;49.982;8.398;2024-02-23T00:03:50;8.70;99.90
8593;DHT22;4334;49.982;8.398;2024-02-23T00:06:17;8.70;99.90
8593;DHT22;4334;49.982;8.398;2024-02-23T00:08:44;8.70;99.90
8593;DHT22;4334;49.982;8.398;2024-02-23T00:11:12;8.60;99.90
8593;DHT22;4334;49.982;8.398;2024-02-23T00:13:38;8.60;99.90
8593;DHT22;4334;49.982;8.398;2024-02-23T00:16:05;8.50;99.90
8593;DHT22;4334;49.982;8.398;2024-02-23T00:18:32;8.40;99.90
8593;DHT22;4334;49.982;8.398;2024-02-23T00:20:59;8.40;99.90
8593;DHT22;4334;49.982;8.398;2024-02-23T00:23:25;8.30;99.90
8593;DHT22;4334;49.982;8.398;2024-02-23T00:25:54;8.20;99.90
8593;DHT22;4334;49.982;8.398;2024-02-23T00:28:22;8.20;99.90
8593;DHT22;4334;49.982;8.398;2024-02-23T00:30:49;11.60;99.90
8593;DHT22;4334;49.982;8.398;2024-02-23T00:33:15;8.30;99.90
8593;DHT22;4334;49.982;8.398;2024-02-23T00:35:42;8.30;99.90
8593;DHT22;4334;49.982;8.398;2024-02-23T00:38:09;8.30;99.90
8593;DHT22;4334;49.982;8.398;2024-02-23T00:40:36;8.30;99.90
8593;DHT22;4334;49.982;8.398;2024-02-23T00:43:03;8.20;99.90
8593;DHT22;4334;49.982;8.398;2024-02-23T00:45:31;9.40;99.90
8593;DHT22;4334;49.982;8.398;2024-02-23T00:47:58;8.20;99.90
8593;DHT22;4334;49.982;8.398;2024-02-23T00:50:25;8.20;99.90
8593;DHT22;4334;49.982;8.398;2024-02-23T00:52:52;8.20;99.90
8593;DHT22;4334;49.982;8.398;2024-02-23T00:55:19;8.10;99.90
8593;DHT22;4334;49.982;8.398;2024-02-23T00:57:46;8.10;99.90
8593;DHT22;4334;49.982;8.398;2024-02-23T01:00:13;8.00;99.90
8593;DHT22;4334;49.982;8.398;2024-02-23T01:02:41;8.00;99.90
8593;DHT22;4334;49.982;8.398;2024-02-23T01:05:08;8.00;99.90
8593;DHT22;4334;49.982;8.398;2024-02-23T01:07:36;10.40;99.90
8593;DHT22;4334;49.982;8.398;2024-02-23T01:10:03;8.00;99.90
8593;DHT22;4334;49.982;8.398;2024-02-23T01:12:30;8.00;99.90
8593;DHT22;4334;49.982;8.398;2024-02-23T01:14:57;8.00;99.90
8593;DHT22;4334;49.982;8.398;2024-02-23T01:17:23;8.00;99.90
8593;DHT22;4334;49.982;8.398;2024-02-23T01:19:51;7.90;99.90
8593;DHT22;4334;49.982;8.398;2024-02-23T01:22:18;7.80;99.90
8593;DHT22;4334;49.982;8.398;2024-02-23T01:24:45;7.70;99.90
8593;DHT22;4334;49.982;8.398;2024-02-23T01:27:11;7.60;99.90
8593;DHT22;4334;49.982;8.398;2024-02-23T01:29:38;7.50;99.90
8593;DHT22;4334;49.982;8.398;2024-02-23T01:32:05;8.00;99.90
8593;DHT22;4334;49.982;8.398;2024-02-23T01:34:32;7.40;99.90
8593;DHT22;4334;49.982;8.398;2024-02-23T01:37:00;7.40;99.90
8593;DHT22;4334;49.982;8.398;2024-02-23T01:39:28;7.50;99.90
8593;DHT22;4334;49.982;8.398;2024-02-23T01:41:54;7.60;99.90
8593;DHT22;4334;49.982;8.398;2024-02-23T01:44:21;7.60;99.90
8593;DHT22;4334;49.982;8.398;2024-02-23T01:46:48;7.50;99.90
8593;DHT22;4334;49.982;8.398;2024-02-23T01:49:15;7.40;99.90
8593;DHT22;4334;49.982;8.398;2024-02-23T01:51:42;7.40;99.90
8593;DHT22;4334;49.982;8.398;2024-02-23T01:54:11;7.30;99.90
8593;DHT22;4334;49.982;8.398;2024-02-23T01:56:38;7.20;99.90
8593;DHT22;4334;49.982;8.398;2024-02-23T01:59:06;7.20;99.90
8593;DHT22;4334;49.982;8.398;2024-02-23T02:01:33;7.20;99.90
8593;DHT22;4334;49.982;8.398;2024-02-23T02:03:59;7.10;99.90
8593;DHT22;4334;49.982;8.398;2024-02-23T02:06:26;10.10;99.90
8593;DHT22;4334;49.982;8.398;2024-02-23T02:08:53;7.00;99.90
8593;DHT22;4334;49.982;8.398;2024-02-23T02:11:21;7.10;99.90
8593;DHT22;4334;49.982;8.398;2024-02-23T02:13:47;6.90;99.90
8593;DHT22;4334;49.982;8.398;2024-02-23T02:16:14;7.50;99.90
8593;DHT22;4334;49.982;8.398;2024-02-23T02:18:41;7.20;99.90
8593;DHT22;4334;49.982;8.398;2024-02-23T02:21:09;6.50;99.90
8593;DHT22;4334;49.982;8.398;2024-02-23T02:23:36;6.40;99.90
8593;DHT22;4334;49.982;8.398;2024-02-23T02:26:03;3.70;99.90
8593;DHT22;4334;49.982;8.398;2024-02-23T02:28:32;6.30;99.90
8593;DHT22;4334;49.982;8.398;2024-02-23T02:30:59;6.60;99.90
8593;DHT22;4334;49.982;8.398;2024-02-23T02:33:26;6.20;99.90
8593;DHT22;4334;49.982;8.398;2024-02-23T02:35:53;6.10;99.90
8593;DHT22;4334;49.982;8.398;2024-02-23T02:38:19;6.10;99.90
8593;DHT22;4334;49.982;8.398;2024-02-23T02:40:46;6.00;99.90
8593;DHT22;4334;49.982;8.398;2024-02-23T02:43:13;6.00;99.90
8593;DHT22;4334;49.982;8.398;2024-02-23T02:45:41;5.80;99.90
8593;DHT22;4334;49.982;8.398;2024-02-23T02:48:08;5.80;99.90
8593;DHT22;4334;49.982;8.398;2024-02-23T02:50:34;5.80;99.90
8593;DHT22;4334;49.982;8.398;2024-02-23T02:53:01;5.70;99.90
8593;DHT22;4334;49.982;8.398;2024-02-23T02:55:28;5.70;99.90
8593;DHT22;4334;49.982;8.398;2024-02-23T02:57:54;5.70;99.90
8593;DHT22;4334;49.982;8.398;2024-02-23T03:00:21;5.60;99.90
8593;DHT22;4334;49.982;8.398;2024-02-23T03:02:49;5.60;99.90
8593;DHT22;4334;49.982;8.398;2024-02-23T03:05:15;5.50;99.90
8593;DHT22;4334;49.982;8.398;2024-02-23T03:07:42;6.70;99.90
8593;DHT22;4334;49.982;8.398;2024-02-23T03:10:09;5.50;99.90
8593;DHT22;4334;49.982;8.398;2024-02-23T03:12:35;5.50;99.90
8593;DHT22;4334;49.982;8.398;2024-02-23T03:15:03;5.70;99.90
8593;DHT22;4334;49.982;8.398;2024-02-23T03:17:30;5.80;99.90
8593;DHT22;4334;49.982;8.398;2024-02-23T03:19:59;5.90;99.90
8593;DHT22;4334;49.982;8.398;2024-02-23T03:22:26;5.90;99.90
8593;DHT22;4334;49.982;8.398;2024-02-23T03:24:53;8.30;99.90
8593;DHT22;4334;49.982;8.398;2024-02-23T03:27:20;5.80;99.90
8593;DHT22;4334;49.982;8.398;2024-02-23T03:29:47;5.70;99.90
8593;DHT22;4334;49.982;8.398;2024-02-23T03:32:14;5.60;99.90
8593;DHT22;4334;49.982;8.398;2024-02-23T03:34:41;5.50;99.90
8593;DHT22;4334;49.982;8.398;2024-02-23T03:37:10;5.50;99.90
8593;DHT22;4334;49.982;8.398;2024-02-23T03:39:36;5.60;99.90
8593;DHT22;4334;49.982;8.398;2024-02-23T03:42:04;5.50;99.90
8593;DHT22;4334;49.982;8.398;2024-02-23T03:44:30;5.30;99.90
8593;DHT22;4334;49.982;8.398;2024-02-23T03:46:57;5.30;99.90
8593;DHT22;4334;49.982;8.398;2024-02-23T03:49:24;5.20;99.90
8593;DHT22;4334;49.982;8.398;2024-02-23T03:51:50;5.10;99.90
8593;DHT22;4334;49.982;8.398;2024-02-23T03:54:18;5.20;99.90
8593;DHT22;4334;49.982;8.398;2024-02-23T03:56:45;5.20;99.90
8593;DHT22;4334;49.982;8.398;2024-02-23T03:59:12;5.10;99.90
8593;DHT22;4334;49.982;8.398;2024-02-23T04:01:38;5.10;99.90
8593;DHT22;4334;49.982;8.398;2024-02-23T04:04:05;5.10;99.90
8593;DHT22;4334;49.982;8.398;2024-02-23T04:06:33;5.00;99.90
8593;DHT22;4334;49.982;8.398;2024-02-23T04:09:00;5.00;99.90
8593;DHT22;4334;49.982;8.398;2024-02-23T04:11:28;4.90;99.90
8593;DHT22;4334;49.982;8.398;2024-02-23T04:13:55;4.70;99.90
8593;DHT22;4334;49.982;8.398;2024-02-23T04:16:23;4.70;99.90
8593;DHT22;4334;49.982;8.398;2024-02-23T04:18:50;4.60;99.90
8593;DHT22;4334;49.982;8.398;2024-02-23T04:21:17;4.60;99.90
8593;DHT22;4334;49.982;8.398;2024-02-23T04:23:43;4.70;99.90
8593;DHT22;4334;49.982;8.398;2024-02-23T04:26:10;4.70;99.90
8593;DHT22;4334;49.982;8.398;2024-02-23T04:28:39;4.70;99.90
8593;DHT22;4334;49.982;8.398;2024-02-23T04:31:07;4.70;99.90
8593;DHT22;4334;49.982;8.398;2024-02-23T04:33:34;4.60;99.90
8593;DHT22;4334;49.982;8.398;2024-02-23T04:36:01;4.50;99.90
8593;DHT22;4334;49.982;8.398;2024-02-23T04:38:28;4.50;99.90
8593;DHT22;4334;49.982;8.398;2024-02-23T04:40:55;4.30;99.90
8593;DHT22;4334;49.982;8.398;2024-02-23T04:43:22;4.30;99.90
8593;DHT22;4334;49.982;8.398;2024-02-23T04:45:50;4.30;99.90
8593;DHT22;4334;49.982;8.398;2024-02-23T04:48:16;4.40;99.90
8593;DHT22;4334;49.982;8.398;2024-02-23T04:50:43;4.40;99.90
8593;DHT22;4334;49.982;8.398;2024-02-23T04:53:10;4.50;99.90
8593;DHT22;4334;49.982;8.398;2024-02-23T04:55:36;4.50;99.90
8593;DHT22;4334;49.982;8.398;2024-02-23T04:58:03;4.50;99.90
8593;DHT22;4334;49.982;8.398;2024-02-23T05:00:30;4.50;99.90
8593;DHT22;4334;49.982;8.398;2024-02-23T05:03:00;4.50;99.90
8593;DHT22;4334;49.982;8.398;2024-02-23T05:05:28;4.60;99.90
8593;DHT22;4334;49.982;8.398;2024-02-23T05:07:55;4.60;99.90
8593;DHT22;4334;49.982;8.398;2024-02-23T05:10:22;4.60;99.90
8593;DHT22;4334;49.982;8.398;2024-02-23T05:12:49;4.60;99.90
8593;DHT22;4334;49.982;8.398;2024-02-23T05:15:16;4.60;99.90
8593;DHT22;4334;49.982;8.398;2024-02-23T05:17:42;4.70;99.90
8593;DHT22;4334;49.982;8.398;2024-02-23T05:20:12;4.70;99.90
8593;DHT22;4334;49.982;8.398;2024-02-23T05:22:39;4.70;99.90
8593;DHT22;4334;49.982;8.398;2024-02-23T05:25:07;4.60;99.90
8593;DHT22;4334;49.982;8.398;2024-02-23T05:27:34;4.50;99.90
8593;DHT22;4334;49.982;8.398;2024-02-23T05:30:01;4.40;99.90
8593;DHT22;4334;49.982;8.398;2024-02-23T05:32:27;4.40;99.90
8593;DHT22;4334;49.982;8.398;2024-02-23T05:34:54;4.30;99.90
8593;DHT22;4334;49.982;8.398;2024-02-23T05:37:23;4.20;99.90
8593;DHT22;4334;49.982;8.398;2024-02-23T05:39:50;4.20;99.90
8593;DHT22;4334;49.982;8.398;2024-02-23T05:42:18;4.20;99.90
8593;DHT22;4334;49.982;8.398;2024-02-23T05:44:45;4.50;99.90
8593;DHT22;4334;49.982;8.398;2024-02-23T05:47:14;4.10;99.90
8593;DHT22;4334;49.982;8.398;2024-02-23T05:49:41;4.10;99.90
8593;DHT22;4334;49.982;8.398;2024-02-23T05:52:07;4.10;99.90
8593;DHT22;4334;49.982;8.398;2024-02-23T05:54:36;4.20;99.90
8593;DHT22;4334;49.982;8.398;2024-02-23T05:57:03;4.20;99.90
8593;DHT22;4334;49.982;8.398;2024-02-23T05:59:30;4.30;99.90
8593;DHT22;4334;49.982;8.398;2024-02-23T06:01:57;4.40;99.90
8593;DHT22;4334;49.982;8.398;2024-02-23T06:04:24;4.40;99.90
8593;DHT22;4334;49.982;8.398;2024-02-23T06:06:50;4.50;99.90
8593;DHT22;4334;49.982;8.398;2024-02-23T06:09:17;4.50;99.90
8593;DHT22;4334;49.982;8.398;2024-02-23T06:11:45;4.50;99.90
8593;DHT22;4334;49.982;8.398;2024-02-23T06:14:12;4.50;99.90
8593;DHT22;4334;49.982;8.398;2024-02-23T06:16:39;4.50;99.90
8593;DHT22;4334;49.982;8.398;2024-02-23T06:19:06;4.50;99.90
8593;DHT22;4334;49.982;8.398;2024-02-23T06:21:33;4.60;99.90
8593;DHT22;4334;49.982;8.398;2024-02-23T06:24:00;4.80;99.90
8593;DHT22;4334;49.982;8.398;2024-02-23T06:26:26;5.00;99.90
8593;DHT22;4334;49.982;8.398;2024-02-23T06:28:54;5.00;99.90
8593;DHT22;4334;49.982;8.398;2024-02-23T06:31:21;5.10;99.90
8593;DHT22;4334;49.982;8.398;2024-02-23T06:33:48;5.20;99.90
8593;DHT22;4334;49.982;8.398;2024-02-23T06:36:16;5.30;99.90
8593;DHT22;4334;49.982;8.398;2024-02-23T06:38:43;5.30;99.90
8593;DHT22;4334;49.982;8.398;2024-02-23T06:41:11;5.40;99.90
8593;DHT22;4334;49.982;8.398;2024-02-23T06:43:38;5.40;99.90
8593;DHT22;4334;49.982;8.398;2024-02-23T06:46:07;5.40;99.90
8593;DHT22;4334;49.982;8.398;2024-02-23T06:48:34;5.50;99.90
8593;DHT22;4334;49.982;8.398;2024-02-23T06:51:01;5.60;99.90
8593;DHT22;4334;49.982;8.398;2024-02-23T06:53:28;5.60;99.90
8593;DHT22;4334;49.982;8.398;2024-02-23T06:55:54;5.70;99.90
8593;DHT22;4334;49.982;8.398;2024-02-23T06:58:21;5.70;99.90
8593;DHT22;4334;49.982;8.398;2024-02-23T07:00:48;5.70;99.90
8593;DHT22;4334;49.982;8.398;2024-02-23T07:03:16;5.70;99.90
8593;DHT22;4334;49.982;8.398;2024-02-23T07:05:43;5.80;99.90
8593;DHT22;4334;49.982;8.398;2024-02-23T07:08:10;5.90;99.90
8593;DHT22;4334;49.982;8.398;2024-02-23T07:10:37;6.00;99.90
8593;DHT22;4334;49.982;8.398;2024-02-23T07:13:04;6.00;99.90
8593;DHT22;4334;49.982;8.398;2024-02-23T07:15:32;6.10;99.90
8593;DHT22;4334;49.982;8.398;2024-02-23T07:17:59;6.10;99.90
8593;DHT22;4334;49.982;8.398;2024-02-23T07:20:27;6.20;99.90
8593;DHT22;4334;49.982;8.398;2024-02-23T07:22:53;6.60;99.90
8593;DHT22;4334;49.982;8.398;2024-02-23T07:25:20;6.90;99.90
8593;DHT22;4334;49.982;8.398;2024-02-23T07:27:47;7.60;99.90
8593;DHT22;4334;49.982;8.398;2024-02-23T07:30:15;8.20;99.90
8593;DHT22;4334;49.982;8.398;2024-02-23T07:32:42;8.70;99.90
8593;DHT22;4334;49.982;8.398;2024-02-23T07:35:09;8.20;99.90
8593;DHT22;4334;49.982;8.398;2024-02-23T07:37:37;7.90;99.90
8593;DHT22;4334;49.982;8.398;2024-02-23T07:40:05;7.80;99.90
8593;DHT22;4334;49.982;8.398;2024-02-23T07:42:32;7.80;99.90
8593;DHT22;4334;49.982;8.398;2024-02-23T07:45:01;7.80;99.90
8593;DHT22;4334;49.982;8.398;2024-02-23T07:47:29;7.70;99.90
8593;DHT22;4334;49.982;8.398;2024-02-23T07:49:56;7.50;99.90
8593;DHT22;4334;49.982;8.398;2024-02-23T07:52:23;7.40;99.90
8593;DHT22;4334;49.982;8.398;2024-02-23T07:54:52;7.30;99.90
8593;DHT22;4334;49.982;8.398;2024-02-23T07:57:18;7.20;99.90
8593;DHT22;4334;49.982;8.398;2024-02-23T07:59:45;7.10;99.90
8593;DHT22;4334;49.982;8.398;2024-02-23T08:02:12;7.10;99.90
8593;DHT22;4334;49.982;8.398;2024-02-23T08:04:39;7.10;99.90
8593;DHT22;4334;49.982;8.398;2024-02-23T08:07:06;7.10;99.90
8593;DHT22;4334;49.982;8.398;2024-02-23T08:09:32;7.10;99.90
8593;DHT22;4334;49.982;8.398;2024-02-23T08:12:00;7.00;99.90
8593;DHT22;4334;49.982;8.398;2024-02-23T08:14:27;7.10;99.90
8593;DHT22;4334;49.982;8.398;2024-02-23T08:16:54;7.10;99.90
8593;DHT22;4334;49.982;8.398;2024-02-23T08:19:20;7.10;99.90
8593;DHT22;4334;49.982;8.398;2024-02-23T08:21:47;7.20;99.90
8593;DHT22;4334;49.982;8.398;2024-02-23T08:24:14;7.30;99.90
8593;DHT22;4334;49.982;8.398;2024-02-23T08:26:41;7.40;99.90
8593;DHT22;4334;49.982;8.398;2024-02-23T08:29:09;7.30;99.90
8593;DHT22;4334;49.982;8.398;2024-02-23T08:31:36;7.50;99.90
8593;DHT22;4334;49.982;8.398;2024-02-23T08:34:02;7.50;99.90
8593;DHT22;4334;49.982;8.398;2024-02-23T08:36:29;7.60;99.90
8593;DHT22;4334;49.982;8.398;2024-02-23T08:38:56;7.70;99.90
8593;DHT22;4334;49.982;8.398;2024-02-23T08:41:22;7.80;99.90
8593;DHT22;4334;49.982;8.398;2024-02-23T08:43:49;8.00;99.90
8593;DHT22;4334;49.982;8.398;2024-02-23T08:46:17;8.20;99.90
8593;DHT22;4334;49.982;8.398;2024-02-23T08:48:44;8.20;99.90
8593;DHT22;4334;49.982;8.398;2024-02-23T08:51:11;8.10;99.90
8593;DHT22;4334;49.982;8.398;2024-02-23T08:53:38;8.00;99.90
8593;DHT22;4334;49.982;8.398;2024-02-23T08:56:06;7.90;99.90
8593;DHT22;4334;49.982;8.398;2024-02-23T08:58:33;7.80;99.90
8593;DHT22;4334;49.982;8.398;2024-02-23T09:01:00;7.80;99.90
8593;DHT22;4334;49.982;8.398;2024-02-23T09:03:28;7.70;99.90
8593;DHT22;4334;49.982;8.398;2024-02-23T09:05:55;8.80;99.90
8593;DHT22;4334;49.982;8.398;2024-02-23T09:08:21;7.60;99.90
8593;DHT22;4334;49.982;8.398;2024-02-23T09:10:48;7.70;99.90
8593;DHT22;4334;49.982;8.398;2024-02-23T09:13:15;7.70;99.90
8593;DHT22;4334;49.982;8.398;2024-02-23T09:15:42;7.60;99.90
8593;DHT22;4334;49.982;8.398;2024-02-23T09:18:09;7.70;99.90
8593;DHT22;4334;49.982;8.398;2024-02-23T09:20:37;7.70;99.90
8593;DHT22;4334;49.982;8.398;2024-02-23T09:23:04;7.60;99.90
8593;DHT22;4334;49.982;8.398;2024-02-23T09:25:30;7.80;99.90
8593;DHT22;4334;49.982;8.398;2024-02-23T09:27:57;7.80;99.90
8593;DHT22;4334;49.982;8.398;2024-02-23T09:30:24;8.00;99.90
8593;DHT22;4334;49.982;8.398;2024-02-23T09:32:50;8.20;99.90
8593;DHT22;4334;49.982;8.398;2024-02-23T09:35:17;8.20;99.90
8593;DHT22;4334;49.982;8.398;2024-02-23T09:37:45;8.30;99.90
8593;DHT22;4334;49.982;8.398;2024-02-23T09:40:12;8.50;99.90
8593;DHT22;4334;49.982;8.398;2024-02-23T09:42:40;8.60;99.90
8593;DHT22;4334;49.982;8.398;2024-02-23T09:45:08;8.50;99.90
8593;DHT22;4334;49.982;8.398;2024-02-23T09:47:37;8.50;99.90
8593;DHT22;4334;49.982;8.398;2024-02-23T09:50:05;8.50;99.90
8593;DHT22;4334;49.982;8.398;2024-02-23T09:52:32;8.40;99.90
8593;DHT22;4334;49.982;8.398;2024-02-23T09:55:01;8.40;99.90
8593;DHT22;4334;49.982;8.398;2024-02-23T09:57:29;8.40;99.90
8593;DHT22;4334;49.982;8.398;2024-02-23T09:59:56;8.50;99.90
8593;DHT22;4334;49.982;8.398;2024-02-23T10:02:22;8.80;99.90
8593;DHT22;4334;49.982;8.398;2024-02-23T10:04:50;9.00;99.90
8593;DHT22;4334;49.982;8.398;2024-02-23T10:07:17;9.20;99.90
8593;DHT22;4334;49.982;8.398;2024-02-23T10:09:44;11.90;99.90
8593;DHT22;4334;49.982;8.398;2024-02-23T10:12:13;9.50;99.90
8593;DHT22;4334;49.982;8.398;2024-02-23T10:14:41;9.60;99.90
8593;DHT22;4334;49.982;8.398;2024-02-23T10:17:08;9.60;99.90
8593;DHT22;4334;49.982;8.398;2024-02-23T10:19:34;9.40;99.90
8593;DHT22;4334;49.982;8.398;2024-02-23T10:22:01;9.40;99.90
8593;DHT22;4334;49.982;8.398;2024-02-23T10:24:28;9.40;99.90
8593;DHT22;4334;49.982;8.398;2024-02-23T10:26:54;9.10;99.90
8593;DHT22;4334;49.982;8.398;2024-02-23T10:29:23;9.10;99.90
8593;DHT22;4334;49.982;8.398;2024-02-23T10:31:51;9.10;99.90
8593;DHT22;4334;49.982;8.398;2024-02-23T10:34:19;12.70;99.90
8593;DHT22;4334;49.982;8.398;2024-02-23T10:36:46;9.10;99.90
8593;DHT22;4334;49.982;8.398;2024-02-23T10:39:16;9.00;99.90
8593;DHT22;4334;49.982;8.398;2024-02-23T10:41:47;9.30;99.90
8593;DHT22;4334;49.982;8.398;2024-02-23T10:44:16;9.70;99.90
8593;DHT22;4334;49.982;8.398;2024-02-23T10:46:45;9.90;99.90
8593;DHT22;4334;49.982;8.398;2024-02-23T10:49:15;9.90;99.90
8593;DHT22;4334;49.982;8.398;2024-02-23T10:51:43;9.70;99.90
8593;DHT22;4334;49.982;8.398;2024-02-23T10:54:13;9.40;99.90
8593;DHT22;4334;49.982;8.398;2024-02-23T10:56:40;9.20;99.90
8593;DHT22;4334;49.982;8.398;2024-02-23T10:59:08;9.10;99.90
8593;DHT22;4334;49.982;8.398;2024-02-23T11:01:35;9.10;99.90
8593;DHT22;4334;49.982;8.398;2024-02-23T11:04:07;9.10;99.90
8593;DHT22;4334;49.982;8.398;2024-02-23T11:06:34;9.30;99.90
8593;DHT22;4334;49.982;8.398;2024-02-23T11:09:07;9.30;99.90
8593;DHT22;4334;49.982;8.398;2024-02-23T11:11:34;13.70;99.90
8593;DHT22;4334;49.982;8.398;2024-02-23T11:14:03;9.40;99.90
8593;DHT22;4334;49.982;8.398;2024-02-23T11:16:39;9.60;99.90
8593;DHT22;4334;49.982;8.398;2024-02-23T11:19:09;9.60;99.90
8593;DHT22;4334;49.982;8.398;2024-02-23T11:21:36;9.40;99.90
8593;DHT22;4334;49.982;8.398;2024-02-23T11:24:04;9.50;99.90
8593;DHT22;4334;49.982;8.398;2024-02-23T11:26:31;9.60;99.90
8593;DHT22;4334;49.982;8.398;2024-02-23T11:28:59;10.10;99.90
8593;DHT22;4334;49.982;8.398;2024-02-23T11:31:29;11.40;99.90
8593;DHT22;4334;49.982;8.398;2024-02-23T11:33:57;11.70;99.90
8593;DHT22;4334;49.982;8.398;2024-02-23T11:36:28;11.00;99.90
8593;DHT22;4334;49.982;8.398;2024-02-23T11:38:57;10.60;99.90
8593;DHT22;4334;49.982;8.398;2024-02-23T11:41:25;10.20;99.90
8593;DHT22;4334;49.982;8.398;2024-02-23T11:43:52;10.00;99.90
8593;DHT22;4334;49.982;8.398;2024-02-23T11:46:20;9.70;99.90
8593;DHT22;4334;49.982;8.398;2024-02-23T11:48:48;9.80;99.90
8593;DHT22;4334;49.982;8.398;2024-02-23T11:51:19;10.10;99.90
8593;DHT22;4334;49.982;8.398;2024-02-23T11:53:47;10.10;99.90
8593;DHT22;4334;49.982;8.398;2024-02-23T11:56:14;11.20;99.90
8593;DHT22;4334;49.982;8.398;2024-02-23T11:58:41;11.50;99.90
8593;DHT22;4334;49.982;8.398;2024-02-23T12:01:08;11.10;99.90
8593;DHT22;4334;49.982;8.398;2024-02-23T12:03:35;10.80;99.90
8593;DHT22;4334;49.982;8.398;2024-02-23T12:06:04;10.50;99.90
8593;DHT22;4334;49.982;8.398;2024-02-23T12:08:32;10.40;99.90
8593;DHT22;4334;49.982;8.398;2024-02-23T12:11:05;10.80;99.90
8593;DHT22;4334;49.982;8.398;2024-02-23T12:13:33;11.20;99.90
8593;DHT22;4334;49.982;8.398;2024-02-23T12:16:00;12.00;99.90
8593;DHT22;4334;49.982;8.398;2024-02-23T12:18:28;12.50;99.90
8593;DHT22;4334;49.982;8.398;2024-02-23T12:20:59;12.00;99.90
8593;DHT22;4334;49.982;8.398;2024-02-23T12:23:26;11.20;99.90
8593;DHT22;4334;49.982;8.398;2024-02-23T12:25:54;10.30;99.90
8593;DHT22;4334;49.982;8.398;2024-02-23T12:28:22;10.20;99.90
8593;DHT22;4334;49.982;8.398;2024-02-23T12:30:58;10.30;99.90
8593;DHT22;4334;49.982;8.398;2024-02-23T12:33:27;10.40;99.90
8593;DHT22;4334;49.982;8.398;2024-02-23T12:35:55;10.10;99.90
8593;DHT22;4334;49.982;8.398;2024-02-23T12:38:21;10.20;99.90
8593;DHT22;4334;49.982;8.398;2024-02-23T12:40:48;11.00;99.90
8593;DHT22;4334;49.982;8.398;2024-02-23T12:43:15;12.30;99.90
8593;DHT22;4334;49.982;8.398;2024-02-23T12:45:43;12.10;99.90
8593;DHT22;4334;49.982;8.398;2024-02-23T12:48:11;11.30;99.90
8593;DHT22;4334;49.982;8.398;2024-02-23T12:50:38;11.00;99.90
8593;DHT22;4334;49.982;8.398;2024-02-23T12:53:04;10.50;99.90
8593;DHT22;4334;49.982;8.398;2024-02-23T12:55:31;10.20;99.90
8593;DHT22;4334;49.982;8.398;2024-02-23T12:57:58;10.10;99.90
8593;DHT22;4334;49.982;8.398;2024-02-23T13:00:24;10.50;99.90
8593;DHT22;4334;49.982;8.398;2024-02-23T13:02:53;10.50;99.90
8593;DHT22;4334;49.982;8.398;2024-02-23T13:05:19;10.40;99.90
8593;DHT22;4334;49.982;8.398;2024-02-23T13:07:47;10.30;99.90
8593;DHT22;4334;49.982;8.398;2024-02-23T13:10:14;10.50;99.90
8593;DHT22;4334;49.982;8.398;2024-02-23T13:12:43;10.40;99.90
8593;DHT22;4334;49.982;8.398;2024-02-23T13:15:10;10.40;99.90
8593;DHT22;4334;49.982;8.398;2024-02-23T13:17:37;13.70;99.90
8593;DHT22;4334;49.982;8.398;2024-02-23T13:20:06;10.70;99.90
8593;DHT22;4334;49.982;8.398;2024-02-23T13:22:33;10.40;99.90
8593;DHT22;4334;49.982;8.398;2024-02-23T13:25:00;10.20;99.90
8593;DHT22;4334;49.982;8.398;2024-02-23T13:27:26;10.00;99.90
8593;DHT22;4334;49.982;8.398;2024-02-23T13:29:55;10.10;99.90
8593;DHT22;4334;49.982;8.398;2024-02-23T13:32:22;10.00;99.90
8593;DHT22;4334;49.982;8.398;2024-02-23T13:34:48;10.20;99.90
8593;DHT22;4334;49.982;8.398;2024-02-23T13:37:18;10.40;99.90
8593;DHT22;4334;49.982;8.398;2024-02-23T13:39:45;10.40;99.90
8593;DHT22;4334;49.982;8.398;2024-02-23T13:42:12;10.40;99.90
8593;DHT22;4334;49.982;8.398;2024-02-23T13:44:38;10.50;99.90
8593;DHT22;4334;49.982;8.398;2024-02-23T13:47:05;10.70;99.90
8593;DHT22;4334;49.982;8.398;2024-02-23T13:49:32;10.80;99.90
8593;DHT22;4334;49.982;8.398;2024-02-23T13:51:59;10.80;99.90
8593;DHT22;4334;49.982;8.398;2024-02-23T13:54:27;11.20;99.90
8593;DHT22;4334;49.982;8.398;2024-02-23T13:56:54;11.90;99.90
8593;DHT22;4334;49.982;8.398;2024-02-23T13:59:20;12.70;99.90
8593;DHT22;4334;49.982;8.398;2024-02-23T14:01:47;13.20;99.90
8593;DHT22;4334;49.982;8.398;2024-02-23T14:04:14;13.00;99.90
8593;DHT22;4334;49.982;8.398;2024-02-23T14:06:40;11.90;99.90
8593;DHT22;4334;49.982;8.398;2024-02-23T14:09:07;11.40;99.90
8593;DHT22;4334;49.982;8.398;2024-02-23T14:11:35;11.10;99.90
8593;DHT22;4334;49.982;8.398;2024-02-23T14:14:02;11.00;99.90
8593;DHT22;4334;49.982;8.398;2024-02-23T14:16:29;10.90;99.90
8593;DHT22;4334;49.982;8.398;2024-02-23T14:18:56;10.80;99.90
8593;DHT22;4334;49.982;8.398;2024-02-23T14:21:22;10.80;99.90
8593;DHT22;4334;49.982;8.398;2024-02-23T14:23:50;10.80;99.90
8593;DHT22;4334;49.982;8.398;2024-02-23T14:26:17;10.90;99.90
8593;DHT22;4334;49.982;8.398;2024-02-23T14:28:45;10.80;99.90
8593;DHT22;4334;49.982;8.398;2024-02-23T14:31:11;10.80;99.90
8593;DHT22;4334;49.982;8.398;2024-02-23T14:33:38;10.90;99.90
8593;DHT22;4334;49.982;8.398;2024-02-23T14:36:06;11.40;99.90
8593;DHT22;4334;49.982;8.398;2024-02-23T14:38:32;12.40;99.90
8593;DHT22;4334;49.982;8.398;2024-02-23T14:41:00;12.90;99.90
8593;DHT22;4334;49.982;8.398;2024-02-23T14:43:26;13.00;99.90
8593;DHT22;4334;49.982;8.398;2024-02-23T14:45:57;13.70;99.90
8593;DHT22;4334;49.982;8.398;2024-02-23T14:48:24;13.70;99.90
8593;DHT22;4334;49.982;8.398;2024-02-23T14:50:50;12.60;99.90
8593;DHT22;4334;49.982;8.398;2024-02-23T14:53:17;11.90;99.90
8593;DHT22;4334;49.982;8.398;2024-02-23T14:55:44;11.20;99.90
8593;DHT22;4334;49.982;8.398;2024-02-23T14:58:12;10.80;99.90
8593;DHT22;4334;49.982;8.398;2024-02-23T15:00:38;10.30;99.90
8593;DHT22;4334;49.982;8.398;2024-02-23T15:03:06;10.00;99.90
8593;DHT22;4334;49.982;8.398;2024-02-23T15:05:34;9.90;99.90
8593;DHT22;4334;49.982;8.398;2024-02-23T15:08:01;9.80;99.90
8593;DHT22;4334;49.982;8.398;2024-02-23T15:10:27;9.90;99.90
8593;DHT22;4334;49.982;8.398;2024-02-23T15:12:54;9.80;99.90
8593;DHT22;4334;49.982;8.398;2024-02-23T15:15:22;9.90;99.90
8593;DHT22;4334;49.982;8.398;2024-02-23T15:17:49;10.30;99.90
8593;DHT22;4334;49.982;8.398;2024-02-23T15:20:17;10.40;99.90
8593;DHT22;4334;49.982;8.398;2024-02-23T15:22:43;10.60;99.90
8593;DHT22;4334;49.982;8.398;2024-02-23T15:25:12;10.40;99.90
8593;DHT22;4334;49.982;8.398;2024-02-23T15:27:39;10.20;99.90
8593;DHT22;4334;49.982;8.398;2024-02-23T15:30:08;9.90;99.90
8593;DHT22;4334;49.982;8.398;2024-02-23T15:32:35;9.80;99.90
8593;DHT22;4334;49.982;8.398;2024-02-23T15:35:02;9.70;99.90
8593;DHT22;4334;49.982;8.398;2024-02-23T15:37:30;9.60;99.90
8593;DHT22;4334;49.982;8.398;2024-02-23T15:39:57;9.50;99.90
8593;DHT22;4334;49.982;8.398;2024-02-23T15:42:24;9.30;99.90
8593;DHT22;4334;49.982;8.398;2024-02-23T15:44:50;9.20;99.90
8593;DHT22;4334;49.982;8.398;2024-02-23T15:47:16;9.20;99.90
8593;DHT22;4334;49.982;8.398;2024-02-23T15:49:43;9.10;99.90
8593;DHT22;4334;49.982;8.398;2024-02-23T15:52:09;11.70;99.90
8593;DHT22;4334;49.982;8.398;2024-02-23T15:54:37;9.10;99.90
8593;DHT22;4334;49.982;8.398;2024-02-23T15:57:04;10.30;99.90
8593;DHT22;4334;49.982;8.398;2024-02-23T15:59:31;9.20;99.90
8593;DHT22;4334;49.982;8.398;2024-02-23T16:01:58;9.20;99.90
8593;DHT22;4334;49.982;8.398;2024-02-23T16:04:27;9.10;99.90
8593;DHT22;4334;49.982;8.398;2024-02-23T16:06:53;9.00;99.90
8593;DHT22;4334;49.982;8.398;2024-02-23T16:09:20;8.90;99.90
8593;DHT22;4334;49.982;8.398;2024-02-23T16:11:48;8.80;99.90
8593;DHT22;4334;49.982;8.398;2024-02-23T16:14:15;8.80;99.90